sensor_id;sensor_type;location;lat;lon;timestamp;P1;durP1;ratioP1;P2;durP2;ratioP2
81725;SDS011;71135;16.738;-14.648;2024-03-29T00:02:08;1.77;;;0.93;;
81725;SDS011;71135;16.738;-14.648;2024-03-29T00:04:35;7.13;;;0.88;;
81725;SDS011;71135;16.738;-14.648;2024-03-29T00:07:01;2.72;;;0.60;;
81725;SDS011;71135;16.738;-14.648;2024-03-29T00:09:30;4.72;;;0.70;;
81725;SDS011;71135;16.738;-14.648;2024-03-29T00:11:57;4.28;;;0.93;;
81725;SDS011;71135;16.738;-14.648;2024-03-29T00:14:23;2.38;;;0.60;;
81725;SDS011;71135;16.738;-14.648;2024-03-29T00:16:50;4.15;;;1.23;;
81725;SDS011;71135;16.738;-14.648;2024-03-29T00:19:16;2.72;;;1.05;;
81725;SDS011;71135;16.738;-14.648;2024-03-29T00:21:43;3.83;;;0.70;;
81725;SDS011;71135;16.738;-14.648;2024-03-29T00:24:09;6.05;;;1.20;;
81725;SDS011;71135;16.738;-14.648;2024-03-29T00:26:39;3.40;;;1.20;;
81725;SDS011;71135;16.738;-14.648;2024-03-29T00:29:05;5.97;;;1.23;;
81725;SDS011;71135;16.738;-14.648;2024-03-29T00:34:48;4.13;;;0.65;;
81725;SDS011;71135;16.738;-14.648;2024-03-29T00:37:16;3.63;;;0.85;;
81725;SDS011;71135;16.738;-14.648;2024-03-29T00:42:36;2.85;;;0.70;;
81725;SDS011;71135;16.738;-14.648;2024-03-29T00:45:03;6.55;;;1.77;;
81725;SDS011;71135;16.738;-14.648;2024-03-29T00:47:31;3.75;;;1.05;;
81725;SDS011;71135;16.738;-14.648;2024-03-29T00:49:57;4.13;;;1.02;;
81725;SDS011;71135;16.738;-14.648;2024-03-29T00:52:24;3.45;;;0.85;;
81725;SDS011;71135;16.738;-14.648;2024-03-29T00:54:50;1.65;;;0.70;;
81725;SDS011;71135;16.738;-14.648;2024-03-29T00:57:17;3.00;;;0.60;;
81725;SDS011;71135;16.738;-14.648;2024-03-29T00:59:46;6.40;;;0.55;;
81725;SDS011;71135;16.738;-14.648;2024-03-29T01:02:12;3.50;;;0.50;;
81725;SDS011;71135;16.738;-14.648;2024-03-29T01:04:39;4.45;;;1.05;;
81725;SDS011;71135;16.738;-14.648;2024-03-29T01:07:06;5.90;;;0.82;;
81725;SDS011;71135;16.738;-14.648;2024-03-29T01:09:32;2.17;;;0.80;;
81725;SDS011;71135;16.738;-14.648;2024-03-29T01:11:59;5.13;;;0.45;;
81725;SDS011;71135;16.738;-14.648;2024-03-29T01:14:25;1.13;;;0.50;;
81725;SDS011;71135;16.738;-14.648;2024-03-29T01:16:54;4.20;;;0.77;;
81725;SDS011;71135;16.738;-14.648;2024-03-29T01:19:21;5.38;;;1.08;;
81725;SDS011;71135;16.738;-14.648;2024-03-29T01:21:48;2.90;;;0.70;;
81725;SDS011;71135;16.738;-14.648;2024-03-29T01:24:14;5.28;;;0.75;;
81725;SDS011;71135;16.738;-14.648;2024-03-29T01:26:41;2.13;;;0.38;;
81725;SDS011;71135;16.738;-14.648;2024-03-29T01:29:07;3.05;;;0.60;;
81725;SDS011;71135;16.738;-14.648;2024-03-29T01:31:34;2.25;;;0.35;;
81725;SDS011;71135;16.738;-14.648;2024-03-29T01:34:03;1.42;;;0.55;;
81725;SDS011;71135;16.738;-14.648;2024-03-29T01:36:29;3.60;;;0.63;;
81725;SDS011;71135;16.738;-14.648;2024-03-29T01:38:56;5.15;;;0.65;;
81725;SDS011;71135;16.738;-14.648;2024-03-29T01:41:22;3.75;;;0.82;;
81725;SDS011;71135;16.738;-14.648;2024-03-29T01:43:49;0.77;;;0.50;;
81725;SDS011;71135;16.738;-14.648;2024-03-29T01:46:16;4.85;;;0.95;;
81725;SDS011;71135;16.738;-14.648;2024-03-29T01:48:44;3.63;;;0.65;;
81725;SDS011;71135;16.738;-14.648;2024-03-29T01:51:13;3.20;;;1.10;;
81725;SDS011;71135;16.738;-14.648;2024-03-29T01:53:42;3.05;;;0.30;;
81725;SDS011;71135;16.738;-14.648;2024-03-29T01:56:10;3.28;;;0.80;;
81725;SDS011;71135;16.738;-14.648;2024-03-29T01:58:37;3.20;;;1.00;;
81725;SDS011;71135;16.738;-14.648;2024-03-29T02:01:05;1.38;;;0.60;;
81725;SDS011;71135;16.738;-14.648;2024-03-29T02:03:32;2.22;;;0.68;;
81725;SDS011;71135;16.738;-14.648;2024-03-29T02:05:59;3.65;;;0.85;;
81725;SDS011;71135;16.738;-14.648;2024-03-29T02:08:29;3.40;;;0.70;;
81725;SDS011;71135;16.738;-14.648;2024-03-29T02:10:55;3.10;;;0.80;;
81725;SDS011;71135;16.738;-14.648;2024-03-29T02:13:24;3.28;;;0.60;;
81725;SDS011;71135;16.738;-14.648;2024-03-29T02:15:50;4.53;;;0.60;;
81725;SDS011;71135;16.738;-14.648;2024-03-29T02:18:17;3.70;;;0.65;;
81725;SDS011;71135;16.738;-14.648;2024-03-29T02:20:43;4.05;;;0.80;;
81725;SDS011;71135;16.738;-14.648;2024-03-29T02:23:10;4.25;;;0.50;;
81725;SDS011;71135;16.738;-14.648;2024-03-29T02:25:42;3.45;;;0.95;;
81725;SDS011;71135;16.738;-14.648;2024-03-29T02:28:08;4.82;;;0.60;;
81725;SDS011;71135;16.738;-14.648;2024-03-29T02:30:35;2.30;;;0.70;;
81725;SDS011;71135;16.738;-14.648;2024-03-29T02:33:10;3.65;;;0.55;;
81725;SDS011;71135;16.738;-14.648;2024-03-29T02:35:36;3.05;;;0.65;;
81725;SDS011;71135;16.738;-14.648;2024-03-29T02:38:03;1.25;;;0.60;;
81725;SDS011;71135;16.738;-14.648;2024-03-29T02:43:26;4.53;;;0.80;;
81725;SDS011;71135;16.738;-14.648;2024-03-29T02:45:52;5.07;;;0.63;;
81725;SDS011;71135;16.738;-14.648;2024-03-29T02:48:19;2.80;;;0.43;;
81725;SDS011;71135;16.738;-14.648;2024-03-29T02:50:45;2.45;;;0.63;;
81725;SDS011;71135;16.738;-14.648;2024-03-29T02:53:12;2.45;;;0.60;;
81725;SDS011;71135;16.738;-14.648;2024-03-29T02:55:39;2.38;;;0.70;;
81725;SDS011;71135;16.738;-14.648;2024-03-29T02:58:07;1.55;;;0.52;;
81725;SDS011;71135;16.738;-14.648;2024-03-29T03:00:36;3.85;;;0.65;;
81725;SDS011;71135;16.738;-14.648;2024-03-29T03:03:02;7.47;;;0.90;;
81725;SDS011;71135;16.738;-14.648;2024-03-29T03:05:29;1.73;;;0.60;;
81725;SDS011;71135;16.738;-14.648;2024-03-29T03:07:56;3.78;;;0.50;;
81725;SDS011;71135;16.738;-14.648;2024-03-29T03:10:44;4.57;;;0.52;;
81725;SDS011;71135;16.738;-14.648;2024-03-29T03:13:23;2.90;;;0.60;;
81725;SDS011;71135;16.738;-14.648;2024-03-29T03:15:52;2.70;;;0.68;;
81725;SDS011;71135;16.738;-14.648;2024-03-29T03:18:18;3.63;;;0.80;;
81725;SDS011;71135;16.738;-14.648;2024-03-29T03:20:49;2.83;;;0.60;;
81725;SDS011;71135;16.738;-14.648;2024-03-29T03:23:16;2.67;;;0.75;;
81725;SDS011;71135;16.738;-14.648;2024-03-29T03:25:43;6.20;;;0.70;;
81725;SDS011;71135;16.738;-14.648;2024-03-29T03:28:09;4.32;;;1.08;;
81725;SDS011;71135;16.738;-14.648;2024-03-29T03:30:37;2.50;;;0.77;;
81725;SDS011;71135;16.738;-14.648;2024-03-29T03:33:07;2.97;;;0.73;;
81725;SDS011;71135;16.738;-14.648;2024-03-29T03:35:33;5.10;;;0.65;;
81725;SDS011;71135;16.738;-14.648;2024-03-29T03:38:00;4.25;;;0.60;;
81725;SDS011;71135;16.738;-14.648;2024-03-29T03:40:26;2.92;;;0.47;;
81725;SDS011;71135;16.738;-14.648;2024-03-29T03:42:53;2.45;;;0.70;;
81725;SDS011;71135;16.738;-14.648;2024-03-29T03:45:19;2.00;;;0.85;;
81725;SDS011;71135;16.738;-14.648;2024-03-29T03:47:46;3.10;;;0.95;;
81725;SDS011;71135;16.738;-14.648;2024-03-29T03:55:24;1.13;;;0.60;;
81725;SDS011;71135;16.738;-14.648;2024-03-29T03:57:50;1.15;;;0.38;;
81725;SDS011;71135;16.738;-14.648;2024-03-29T04:00:18;2.53;;;0.52;;
81725;SDS011;71135;16.738;-14.648;2024-03-29T04:05:12;3.17;;;0.63;;
81725;SDS011;71135;16.738;-14.648;2024-03-29T04:07:42;1.55;;;0.50;;
81725;SDS011;71135;16.738;-14.648;2024-03-29T04:10:08;3.50;;;0.93;;
81725;SDS011;71135;16.738;-14.648;2024-03-29T04:12:35;2.38;;;0.75;;
81725;SDS011;71135;16.738;-14.648;2024-03-29T04:15:02;2.30;;;0.65;;
81725;SDS011;71135;16.738;-14.648;2024-03-29T04:19:56;1.98;;;0.57;;
81725;SDS011;71135;16.738;-14.648;2024-03-29T04:22:27;1.38;;;0.38;;
81725;SDS011;71135;16.738;-14.648;2024-03-29T04:24:54;2.85;;;0.70;;
81725;SDS011;71135;16.738;-14.648;2024-03-29T04:27:21;2.53;;;0.35;;
81725;SDS011;71135;16.738;-14.648;2024-03-29T04:29:50;1.55;;;0.30;;
81725;SDS011;71135;16.738;-14.648;2024-03-29T04:32:17;1.83;;;0.40;;
81725;SDS011;71135;16.738;-14.648;2024-03-29T04:34:46;2.28;;;0.40;;
81725;SDS011;71135;16.738;-14.648;2024-03-29T04:37:13;2.47;;;1.00;;
81725;SDS011;71135;16.738;-14.648;2024-03-29T04:39:42;4.55;;;0.63;;
81725;SDS011;71135;16.738;-14.648;2024-03-29T04:42:09;3.45;;;0.40;;
81725;SDS011;71135;16.738;-14.648;2024-03-29T04:44:35;2.42;;;0.60;;
81725;SDS011;71135;16.738;-14.648;2024-03-29T04:47:02;7.30;;;0.68;;
81725;SDS011;71135;16.738;-14.648;2024-03-29T04:49:29;1.23;;;0.63;;
81725;SDS011;71135;16.738;-14.648;2024-03-29T04:51:56;2.00;;;0.50;;
81725;SDS011;71135;16.738;-14.648;2024-03-29T04:54:22;2.45;;;0.70;;
81725;SDS011;71135;16.738;-14.648;2024-03-29T04:56:52;1.60;;;0.43;;
81725;SDS011;71135;16.738;-14.648;2024-03-29T04:59:18;5.72;;;0.95;;
81725;SDS011;71135;16.738;-14.648;2024-03-29T05:01:45;2.13;;;0.80;;
81725;SDS011;71135;16.738;-14.648;2024-03-29T05:04:11;2.67;;;0.55;;
81725;SDS011;71135;16.738;-14.648;2024-03-29T05:06:38;2.88;;;0.35;;
81725;SDS011;71135;16.738;-14.648;2024-03-29T05:09:04;3.55;;;0.50;;
81725;SDS011;71135;16.738;-14.648;2024-03-29T05:11:31;3.10;;;0.47;;
81725;SDS011;71135;16.738;-14.648;2024-03-29T05:14:00;2.85;;;0.65;;
81725;SDS011;71135;16.738;-14.648;2024-03-29T05:16:26;1.73;;;0.40;;
81725;SDS011;71135;16.738;-14.648;2024-03-29T05:18:53;2.75;;;0.50;;
81725;SDS011;71135;16.738;-14.648;2024-03-29T05:21:19;3.78;;;0.50;;
81725;SDS011;71135;16.738;-14.648;2024-03-29T05:23:46;1.67;;;0.40;;
81725;SDS011;71135;16.738;-14.648;2024-03-29T05:26:12;1.98;;;0.70;;
81725;SDS011;71135;16.738;-14.648;2024-03-29T05:28:39;2.17;;;0.40;;
81725;SDS011;71135;16.738;-14.648;2024-03-29T05:31:11;1.85;;;0.50;;
81725;SDS011;71135;16.738;-14.648;2024-03-29T05:33:39;1.35;;;0.40;;
81725;SDS011;71135;16.738;-14.648;2024-03-29T05:36:06;2.47;;;0.30;;
81725;SDS011;71135;16.738;-14.648;2024-03-29T05:38:33;1.52;;;0.40;;
81725;SDS011;71135;16.738;-14.648;2024-03-29T05:40:59;2.03;;;0.40;;
81725;SDS011;71135;16.738;-14.648;2024-03-29T05:43:26;1.65;;;0.40;;
81725;SDS011;71135;16.738;-14.648;2024-03-29T05:45:52;2.08;;;0.68;;
81725;SDS011;71135;16.738;-14.648;2024-03-29T05:48:21;1.73;;;0.52;;
81725;SDS011;71135;16.738;-14.648;2024-03-29T05:50:48;1.17;;;0.38;;
81725;SDS011;71135;16.738;-14.648;2024-03-29T05:53:14;2.15;;;0.80;;
81725;SDS011;71135;16.738;-14.648;2024-03-29T05:55:41;0.88;;;0.40;;
81725;SDS011;71135;16.738;-14.648;2024-03-29T05:58:07;2.67;;;0.38;;
81725;SDS011;71135;16.738;-14.648;2024-03-29T06:00:34;3.92;;;0.50;;
81725;SDS011;71135;16.738;-14.648;2024-03-29T06:03:01;2.70;;;0.32;;
81725;SDS011;71135;16.738;-14.648;2024-03-29T06:05:30;1.38;;;0.30;;
81725;SDS011;71135;16.738;-14.648;2024-03-29T06:07:57;3.08;;;0.40;;
81725;SDS011;71135;16.738;-14.648;2024-03-29T06:10:23;1.20;;;0.30;;
81725;SDS011;71135;16.738;-14.648;2024-03-29T06:12:50;1.17;;;0.57;;
81725;SDS011;71135;16.738;-14.648;2024-03-29T06:15:17;1.10;;;0.90;;
81725;SDS011;71135;16.738;-14.648;2024-03-29T06:17:58;1.83;;;0.40;;
81725;SDS011;71135;16.738;-14.648;2024-03-29T06:20:25;1.23;;;0.40;;
81725;SDS011;71135;16.738;-14.648;2024-03-29T06:22:54;1.45;;;0.30;;
81725;SDS011;71135;16.738;-14.648;2024-03-29T06:25:20;0.60;;;0.10;;
81725;SDS011;71135;16.738;-14.648;2024-03-29T06:27:47;1.95;;;0.40;;
81725;SDS011;71135;16.738;-14.648;2024-03-29T06:30:14;2.05;;;0.38;;
81725;SDS011;71135;16.738;-14.648;2024-03-29T06:32:41;0.95;;;0.40;;
81725;SDS011;71135;16.738;-14.648;2024-03-29T06:35:08;1.00;;;0.40;;
81725;SDS011;71135;16.738;-14.648;2024-03-29T06:37:35;3.95;;;0.65;;
81725;SDS011;71135;16.738;-14.648;2024-03-29T06:40:04;2.83;;;1.20;;
81725;SDS011;71135;16.738;-14.648;2024-03-29T06:42:31;2.63;;;0.50;;
81725;SDS011;71135;16.738;-14.648;2024-03-29T06:44:58;2.22;;;0.65;;
81725;SDS011;71135;16.738;-14.648;2024-03-29T06:47:25;1.67;;;0.52;;
81725;SDS011;71135;16.738;-14.648;2024-03-29T06:49:53;2.42;;;0.50;;
81725;SDS011;71135;16.738;-14.648;2024-03-29T06:52:20;3.35;;;0.70;;
81725;SDS011;71135;16.738;-14.648;2024-03-29T06:54:46;0.82;;;0.30;;
81725;SDS011;71135;16.738;-14.648;2024-03-29T06:57:15;3.08;;;0.50;;
81725;SDS011;71135;16.738;-14.648;2024-03-29T06:59:42;1.25;;;0.40;;
81725;SDS011;71135;16.738;-14.648;2024-03-29T07:02:08;1.77;;;0.38;;
81725;SDS011;71135;16.738;-14.648;2024-03-29T07:04:35;2.63;;;0.88;;
81725;SDS011;71135;16.738;-14.648;2024-03-29T07:07:02;0.63;;;0.40;;
81725;SDS011;71135;16.738;-14.648;2024-03-29T07:09:29;3.20;;;0.75;;
81725;SDS011;71135;16.738;-14.648;2024-03-29T07:11:55;0.80;;;0.43;;
81725;SDS011;71135;16.738;-14.648;2024-03-29T07:14:24;3.25;;;0.28;;
81725;SDS011;71135;16.738;-14.648;2024-03-29T07:16:51;2.90;;;0.45;;
81725;SDS011;71135;16.738;-14.648;2024-03-29T07:21:44;1.75;;;0.70;;
81725;SDS011;71135;16.738;-14.648;2024-03-29T07:24:11;1.35;;;0.38;;
81725;SDS011;71135;16.738;-14.648;2024-03-29T07:26:38;1.38;;;0.57;;
81725;SDS011;71135;16.738;-14.648;2024-03-29T07:29:05;1.15;;;0.40;;
81725;SDS011;71135;16.738;-14.648;2024-03-29T07:31:34;0.90;;;0.13;;
81725;SDS011;71135;16.738;-14.648;2024-03-29T07:34:00;2.13;;;0.55;;
81725;SDS011;71135;16.738;-14.648;2024-03-29T07:36:27;1.75;;;0.40;;
81725;SDS011;71135;16.738;-14.648;2024-03-29T07:38:54;0.73;;;0.30;;
81725;SDS011;71135;16.738;-14.648;2024-03-29T07:41:21;1.20;;;0.50;;
81725;SDS011;71135;16.738;-14.648;2024-03-29T07:43:51;1.25;;;0.40;;
81725;SDS011;71135;16.738;-14.648;2024-03-29T07:46:18;3.08;;;0.82;;
81725;SDS011;71135;16.738;-14.648;2024-03-29T07:48:47;2.00;;;0.40;;
81725;SDS011;71135;16.738;-14.648;2024-03-29T07:51:14;0.93;;;0.43;;
81725;SDS011;71135;16.738;-14.648;2024-03-29T07:53:40;1.08;;;0.30;;
81725;SDS011;71135;16.738;-14.648;2024-03-29T07:56:07;1.60;;;0.38;;
81725;SDS011;71135;16.738;-14.648;2024-03-29T07:58:33;1.25;;;0.57;;
81725;SDS011;71135;16.738;-14.648;2024-03-29T08:01:00;1.77;;;0.52;;
81725;SDS011;71135;16.738;-14.648;2024-03-29T08:03:26;2.22;;;0.60;;
81725;SDS011;71135;16.738;-14.648;2024-03-29T08:05:59;1.40;;;0.47;;
81725;SDS011;71135;16.738;-14.648;2024-03-29T08:08:26;0.95;;;0.35;;
81725;SDS011;71135;16.738;-14.648;2024-03-29T08:10:53;2.13;;;0.50;;
81725;SDS011;71135;16.738;-14.648;2024-03-29T08:13:19;0.40;;;0.30;;
81725;SDS011;71135;16.738;-14.648;2024-03-29T08:15:46;2.00;;;0.20;;
81725;SDS011;71135;16.738;-14.648;2024-03-29T08:18:13;2.17;;;0.32;;
81725;SDS011;71135;16.738;-14.648;2024-03-29T08:20:39;1.92;;;0.40;;
81725;SDS011;71135;16.738;-14.648;2024-03-29T08:23:09;2.15;;;0.30;;
81725;SDS011;71135;16.738;-14.648;2024-03-29T08:25:35;1.25;;;0.40;;
81725;SDS011;71135;16.738;-14.648;2024-03-29T08:28:02;1.48;;;0.70;;
81725;SDS011;71135;16.738;-14.648;2024-03-29T08:32:55;1.48;;;0.50;;
81725;SDS011;71135;16.738;-14.648;2024-03-29T08:35:21;1.33;;;0.30;;
81725;SDS011;71135;16.738;-14.648;2024-03-29T08:37:48;0.70;;;0.40;;
81725;SDS011;71135;16.738;-14.648;2024-03-29T08:40:18;1.25;;;0.60;;
81725;SDS011;71135;16.738;-14.648;2024-03-29T08:42:44;1.02;;;0.50;;
81725;SDS011;71135;16.738;-14.648;2024-03-29T08:45:11;1.42;;;0.52;;
81725;SDS011;71135;16.738;-14.648;2024-03-29T08:47:37;1.83;;;0.50;;
81725;SDS011;71135;16.738;-14.648;2024-03-29T08:50:04;2.15;;;0.57;;
81725;SDS011;71135;16.738;-14.648;2024-03-29T08:52:31;1.92;;;0.60;;
81725;SDS011;71135;16.738;-14.648;2024-03-29T08:54:58;1.20;;;0.50;;
81725;SDS011;71135;16.738;-14.648;2024-03-29T08:57:27;1.02;;;0.30;;
81725;SDS011;71135;16.738;-14.648;2024-03-29T08:59:53;4.22;;;0.50;;
81725;SDS011;71135;16.738;-14.648;2024-03-29T09:02:20;1.15;;;0.43;;
81725;SDS011;71135;16.738;-14.648;2024-03-29T09:04:46;1.02;;;0.50;;
81725;SDS011;71135;16.738;-14.648;2024-03-29T09:07:13;1.55;;;0.40;;
81725;SDS011;71135;16.738;-14.648;2024-03-29T09:09:39;0.65;;;0.38;;
81725;SDS011;71135;16.738;-14.648;2024-03-29T09:12:06;1.95;;;0.32;;
81725;SDS011;71135;16.738;-14.648;2024-03-29T09:14:36;2.20;;;0.30;;
81725;SDS011;71135;16.738;-14.648;2024-03-29T09:17:02;0.40;;;0.30;;
81725;SDS011;71135;16.738;-14.648;2024-03-29T09:19:29;1.15;;;0.30;;
81725;SDS011;71135;16.738;-14.648;2024-03-29T09:21:56;0.40;;;0.30;;
81725;SDS011;71135;16.738;-14.648;2024-03-29T09:24:22;1.13;;;0.30;;
81725;SDS011;71135;16.738;-14.648;2024-03-29T09:26:49;0.32;;;0.10;;
81725;SDS011;71135;16.738;-14.648;2024-03-29T09:29:15;0.82;;;0.30;;
81725;SDS011;71135;16.738;-14.648;2024-03-29T09:31:44;1.52;;;0.68;;
81725;SDS011;71135;16.738;-14.648;2024-03-29T09:34:11;1.50;;;0.43;;
81725;SDS011;71135;16.738;-14.648;2024-03-29T09:36:37;0.50;;;0.40;;
81725;SDS011;71135;16.738;-14.648;2024-03-29T09:39:04;0.63;;;0.30;;
81725;SDS011;71135;16.738;-14.648;2024-03-29T09:41:31;1.23;;;0.35;;
81725;SDS011;71135;16.738;-14.648;2024-03-29T09:43:59;0.70;;;0.40;;
81725;SDS011;71135;16.738;-14.648;2024-03-29T09:46:28;0.50;;;0.40;;
81725;SDS011;71135;16.738;-14.648;2024-03-29T09:48:57;0.50;;;0.40;;
81725;SDS011;71135;16.738;-14.648;2024-03-29T09:51:26;1.25;;;0.47;;
81725;SDS011;71135;16.738;-14.648;2024-03-29T09:53:53;1.05;;;0.57;;
81725;SDS011;71135;16.738;-14.648;2024-03-29T09:56:21;0.82;;;0.35;;
81725;SDS011;71135;16.738;-14.648;2024-03-29T09:58:48;1.00;;;0.50;;
81725;SDS011;71135;16.738;-14.648;2024-03-29T10:01:14;2.72;;;0.40;;
81725;SDS011;71135;16.738;-14.648;2024-03-29T10:03:42;1.05;;;0.47;;
81725;SDS011;71135;16.738;-14.648;2024-03-29T10:06:13;0.77;;;0.30;;
81725;SDS011;71135;16.738;-14.648;2024-03-29T10:08:40;0.70;;;0.38;;
81725;SDS011;71135;16.738;-14.648;2024-03-29T10:11:07;0.60;;;0.10;;
81725;SDS011;71135;16.738;-14.648;2024-03-29T10:13:34;1.65;;;0.52;;
81725;SDS011;71135;16.738;-14.648;2024-03-29T10:16:00;0.88;;;0.35;;
81725;SDS011;71135;16.738;-14.648;2024-03-29T10:18:27;0.88;;;0.50;;
81725;SDS011;71135;16.738;-14.648;2024-03-29T10:21:00;0.28;;;0.20;;
81725;SDS011;71135;16.738;-14.648;2024-03-29T10:23:30;0.65;;;0.30;;
81725;SDS011;71135;16.738;-14.648;2024-03-29T10:25:57;1.23;;;0.30;;
81725;SDS011;71135;16.738;-14.648;2024-03-29T10:30:55;0.90;;;0.20;;
81725;SDS011;71135;16.738;-14.648;2024-03-29T10:33:22;0.68;;;0.68;;
81725;SDS011;71135;16.738;-14.648;2024-03-29T10:35:48;1.42;;;0.30;;
81725;SDS011;71135;16.738;-14.648;2024-03-29T10:38:15;0.77;;;0.30;;
81725;SDS011;71135;16.738;-14.648;2024-03-29T10:40:44;0.88;;;0.20;;
81725;SDS011;71135;16.738;-14.648;2024-03-29T10:46:27;1.38;;;0.50;;
81725;SDS011;71135;16.738;-14.648;2024-03-29T10:48:54;1.73;;;0.40;;
81725;SDS011;71135;16.738;-14.648;2024-03-29T10:51:21;0.90;;;0.38;;
81725;SDS011;71135;16.738;-14.648;2024-03-29T10:53:48;0.60;;;0.32;;
81725;SDS011;71135;16.738;-14.648;2024-03-29T10:56:19;1.60;;;0.45;;
81725;SDS011;71135;16.738;-14.648;2024-03-29T10:58:49;1.48;;;0.50;;
81725;SDS011;71135;16.738;-14.648;2024-03-29T11:01:18;0.80;;;0.45;;
81725;SDS011;71135;16.738;-14.648;2024-03-29T11:03:48;3.25;;;0.65;;
81725;SDS011;71135;16.738;-14.648;2024-03-29T11:06:20;1.02;;;0.50;;
81725;SDS011;71135;16.738;-14.648;2024-03-29T11:08:49;1.10;;;0.68;;
81725;SDS011;71135;16.738;-14.648;2024-03-29T11:11:22;1.73;;;0.50;;
81725;SDS011;71135;16.738;-14.648;2024-03-29T11:13:52;0.85;;;0.68;;
81725;SDS011;71135;16.738;-14.648;2024-03-29T11:16:21;1.08;;;0.57;;
81725;SDS011;71135;16.738;-14.648;2024-03-29T11:21:15;2.08;;;0.75;;
81725;SDS011;71135;16.738;-14.648;2024-03-29T11:23:47;1.52;;;0.90;;
81725;SDS011;71135;16.738;-14.648;2024-03-29T11:26:14;1.13;;;0.60;;
81725;SDS011;71135;16.738;-14.648;2024-03-29T11:28:47;2.45;;;0.88;;
81725;SDS011;71135;16.738;-14.648;2024-03-29T11:31:14;4.88;;;0.77;;
81725;SDS011;71135;16.738;-14.648;2024-03-29T11:36:11;1.23;;;0.30;;
81725;SDS011;71135;16.738;-14.648;2024-03-29T11:38:39;1.23;;;0.80;;
81725;SDS011;71135;16.738;-14.648;2024-03-29T11:41:07;0.75;;;0.47;;
81725;SDS011;71135;16.738;-14.648;2024-03-29T11:43:37;1.30;;;0.70;;
81725;SDS011;71135;16.738;-14.648;2024-03-29T11:46:07;0.50;;;0.40;;
81725;SDS011;71135;16.738;-14.648;2024-03-29T11:48:35;1.23;;;0.50;;
81725;SDS011;71135;16.738;-14.648;2024-03-29T11:51:02;2.13;;;0.70;;
81725;SDS011;71135;16.738;-14.648;2024-03-29T11:53:30;2.58;;;0.80;;
81725;SDS011;71135;16.738;-14.648;2024-03-29T11:55:57;1.38;;;0.50;;
81725;SDS011;71135;16.738;-14.648;2024-03-29T12:00:51;0.65;;;0.55;;
81725;SDS011;71135;16.738;-14.648;2024-03-29T12:03:20;1.00;;;0.50;;
81725;SDS011;71135;16.738;-14.648;2024-03-29T12:05:49;2.40;;;1.05;;
81725;SDS011;71135;16.738;-14.648;2024-03-29T12:08:16;1.40;;;1.08;;
81725;SDS011;71135;16.738;-14.648;2024-03-29T12:10:43;3.38;;;0.73;;
81725;SDS011;71135;16.738;-14.648;2024-03-29T12:13:10;1.73;;;0.90;;
81725;SDS011;71135;16.738;-14.648;2024-03-29T12:18:04;1.05;;;0.80;;
81725;SDS011;71135;16.738;-14.648;2024-03-29T12:20:34;0.88;;;0.88;;
81725;SDS011;71135;16.738;-14.648;2024-03-29T12:23:01;2.20;;;0.75;;
81725;SDS011;71135;16.738;-14.648;2024-03-29T12:25:28;1.80;;;0.80;;
81725;SDS011;71135;16.738;-14.648;2024-03-29T12:27:55;1.30;;;0.98;;
81725;SDS011;71135;16.738;-14.648;2024-03-29T12:30:23;1.95;;;0.82;;
81725;SDS011;71135;16.738;-14.648;2024-03-29T12:32:59;1.58;;;0.85;;
81725;SDS011;71135;16.738;-14.648;2024-03-29T12:35:27;1.25;;;0.98;;
81725;SDS011;71135;16.738;-14.648;2024-03-29T12:37:57;1.40;;;0.68;;
81725;SDS011;71135;16.738;-14.648;2024-03-29T12:40:24;1.80;;;0.90;;
81725;SDS011;71135;16.738;-14.648;2024-03-29T12:42:52;1.08;;;0.70;;
81725;SDS011;71135;16.738;-14.648;2024-03-29T12:47:45;1.27;;;0.70;;
81725;SDS011;71135;16.738;-14.648;2024-03-29T12:50:13;1.83;;;0.70;;
81725;SDS011;71135;16.738;-14.648;2024-03-29T12:52:44;3.03;;;0.70;;
81725;SDS011;71135;16.738;-14.648;2024-03-29T12:55:14;2.00;;;1.02;;
81725;SDS011;71135;16.738;-14.648;2024-03-29T12:57:41;1.50;;;0.50;;
81725;SDS011;71135;16.738;-14.648;2024-03-29T13:00:08;1.15;;;0.80;;
81725;SDS011;71135;16.738;-14.648;2024-03-29T13:02:35;1.88;;;1.40;;
81725;SDS011;71135;16.738;-14.648;2024-03-29T13:05:03;2.38;;;0.82;;
81725;SDS011;71135;16.738;-14.648;2024-03-29T13:07:30;1.33;;;0.70;;
81725;SDS011;71135;16.738;-14.648;2024-03-29T13:12:26;1.63;;;0.88;;
81725;SDS011;71135;16.738;-14.648;2024-03-29T13:14:53;1.83;;;1.10;;
81725;SDS011;71135;16.738;-14.648;2024-03-29T13:17:19;1.60;;;0.95;;
81725;SDS011;71135;16.738;-14.648;2024-03-29T13:19:46;1.88;;;1.00;;
81725;SDS011;71135;16.738;-14.648;2024-03-29T13:22:12;1.98;;;1.02;;
81725;SDS011;71135;16.738;-14.648;2024-03-29T13:24:39;1.30;;;1.20;;
81725;SDS011;71135;16.738;-14.648;2024-03-29T13:27:05;1.38;;;1.27;;
81725;SDS011;71135;16.738;-14.648;2024-03-29T13:29:34;1.45;;;0.90;;
81725;SDS011;71135;16.738;-14.648;2024-03-29T13:32:01;2.78;;;1.00;;
81725;SDS011;71135;16.738;-14.648;2024-03-29T13:34:28;1.45;;;1.35;;
81725;SDS011;71135;16.738;-14.648;2024-03-29T13:36:54;2.83;;;1.05;;
81725;SDS011;71135;16.738;-14.648;2024-03-29T13:39:21;2.33;;;1.20;;
81725;SDS011;71135;16.738;-14.648;2024-03-29T13:41:48;2.15;;;1.52;;
81725;SDS011;71135;16.738;-14.648;2024-03-29T13:44:14;2.03;;;1.40;;
81725;SDS011;71135;16.738;-14.648;2024-03-29T13:46:43;2.65;;;1.15;;
81725;SDS011;71135;16.738;-14.648;2024-03-29T13:49:10;1.30;;;1.08;;
81725;SDS011;71135;16.738;-14.648;2024-03-29T13:51:37;1.88;;;1.40;;
81725;SDS011;71135;16.738;-14.648;2024-03-29T13:54:04;4.55;;;1.48;;
81725;SDS011;71135;16.738;-14.648;2024-03-29T13:56:30;2.30;;;1.75;;
81725;SDS011;71135;16.738;-14.648;2024-03-29T13:58:57;2.95;;;2.28;;
81725;SDS011;71135;16.738;-14.648;2024-03-29T14:01:23;2.67;;;2.20;;
81725;SDS011;71135;16.738;-14.648;2024-03-29T14:03:52;2.10;;;1.92;;
81725;SDS011;71135;16.738;-14.648;2024-03-29T14:06:20;2.15;;;1.95;;
81725;SDS011;71135;16.738;-14.648;2024-03-29T14:08:47;3.22;;;2.42;;
81725;SDS011;71135;16.738;-14.648;2024-03-29T14:11:13;3.13;;;2.83;;
81725;SDS011;71135;16.738;-14.648;2024-03-29T14:13:40;2.65;;;2.45;;
81725;SDS011;71135;16.738;-14.648;2024-03-29T14:16:06;3.10;;;2.50;;
81725;SDS011;71135;16.738;-14.648;2024-03-29T14:18:33;2.97;;;2.78;;
81725;SDS011;71135;16.738;-14.648;2024-03-29T14:21:02;2.40;;;2.20;;
81725;SDS011;71135;16.738;-14.648;2024-03-29T14:23:29;2.25;;;1.95;;
81725;SDS011;71135;16.738;-14.648;2024-03-29T14:25:55;3.33;;;2.20;;
81725;SDS011;71135;16.738;-14.648;2024-03-29T14:28:22;2.95;;;2.33;;
81725;SDS011;71135;16.738;-14.648;2024-03-29T14:30:49;4.38;;;2.58;;
81725;SDS011;71135;16.738;-14.648;2024-03-29T14:33:15;2.80;;;2.45;;
81725;SDS011;71135;16.738;-14.648;2024-03-29T14:35:42;3.00;;;2.80;;
81725;SDS011;71135;16.738;-14.648;2024-03-29T14:38:11;3.42;;;2.38;;
81725;SDS011;71135;16.738;-14.648;2024-03-29T14:40:37;3.45;;;2.85;;
81725;SDS011;71135;16.738;-14.648;2024-03-29T14:43:04;3.35;;;2.83;;
81725;SDS011;71135;16.738;-14.648;2024-03-29T14:45:31;3.33;;;3.03;;
81725;SDS011;71135;16.738;-14.648;2024-03-29T14:47:58;3.30;;;3.00;;
81725;SDS011;71135;16.738;-14.648;2024-03-29T14:50:24;4.13;;;2.80;;
81725;SDS011;71135;16.738;-14.648;2024-03-29T14:52:51;3.00;;;2.70;;
81725;SDS011;71135;16.738;-14.648;2024-03-29T14:55:20;2.60;;;2.40;;
81725;SDS011;71135;16.738;-14.648;2024-03-29T14:57:47;3.08;;;2.50;;
81725;SDS011;71135;16.738;-14.648;2024-03-29T15:00:14;3.33;;;2.55;;
81725;SDS011;71135;16.738;-14.648;2024-03-29T15:02:41;3.33;;;2.25;;
81725;SDS011;71135;16.738;-14.648;2024-03-29T15:07:34;2.35;;;2.05;;
81725;SDS011;71135;16.738;-14.648;2024-03-29T15:10:00;3.78;;;2.20;;